Flight Track Log - Related Links

Times and Time Zones

All times are in EDT time to prevent confusion due to time zone crossing. See the SKW4632 flight status page for this flight to view local times or setup timezone preferences in your user account.


Time Position Orientation Groundspeed Altitude Reporting Facility
EDT Latitude Longitude Course Direction KTS MPH feet Rate Location/Type
Sun 03:12:16 PM 46.9569 -114.1642 198° South 189 217 5,100  Level Salt Lake Center
Sun 03:13:18 PM 46.9989 -114.2356 311° West 225 259 7,500 2,341 Climbing Salt Lake Center
Sun 03:14:00 PM 46.6748 -113.9982 180° South  Level Estimated
Sun 03:14:19 PM 47.0453 -114.3133 311° West 235 270 9,900  Level Salt Lake Center
Sun 03:15:00 PM 46.5994 -114.0497 205° Southwest  Level FlightAware Approximate
Sun 03:15:21 PM 47.0306 -114.3908 254° West 224 258 12,000  Level Salt Lake Center
Sun 03:16:00 PM 46.5191 -114.0180 180° South  Level Estimated
Sun 03:16:23 PM 46.9583 -114.3933 181° South 247 284 13,400  Level Salt Lake Center
Sun 03:17:00 PM 46.4401 -114.0561 198° South  Level FlightAware Approximate
Sun 03:17:25 PM 46.8794 -114.3750 171° South 286 329 15,100  Level Salt Lake Center
Sun 03:18:27 PM 46.7936 -114.3419 165° South 297 342 17,100 1,694 Climbing Salt Lake Center
Sun 03:19:29 PM 46.7131 -114.3100 165° South 303 349 18,600 1,452 Climbing Salt Lake Center
Sun 03:20:31 PM 46.6228 -114.2756 165° South 312 359 20,100 1,355 Climbing Salt Lake Center
Sun 03:21:33 PM 46.5478 -114.2481 166° South 316 364 21,400 1,296 Climbing Salt Lake Center
Sun 03:22:36 PM 46.4614 -114.2133 165° South 322 371 22,800 1,200 Climbing Salt Lake Center
Sun 03:23:38 PM 46.3569 -114.1725 165° South 325 374 23,900 1,016 Climbing Salt Lake Center
Sun 03:24:40 PM 46.2689 -114.1400 166° South 328 377 24,900 1,016 Climbing Salt Lake Center
Sun 03:25:42 PM 46.1789 -114.1058 165° South 334 384 26,000 919 Climbing Salt Lake Center
Sun 03:26:44 PM 46.0867 -114.0725 166° South 339 390 26,800 774 Climbing Salt Lake Center
Sun 03:27:46 PM 45.9933 -114.0378 166° South 346 398 27,600 774 Climbing Salt Lake Center
Sun 03:28:48 PM 45.9006 -114.0011 165° South 346 398 28,400 774 Climbing Salt Lake Center
Sun 03:29:50 PM 45.7881 -113.9592 165° South 349 402 29,200 629 Climbing Salt Lake Center
Sun 03:30:52 PM 45.6936 -113.9253 166° South 350 403 29,700 387 Climbing Salt Lake Center
Sun 03:31:54 PM 45.5947 -113.8864 165° South 352 405 30,000 145 Climbing Salt Lake Center
Sun 03:32:56 PM 45.5025 -113.8531 166° South 355 409 30,000  Level Salt Lake Center
Sun 03:33:58 PM 45.3950 -113.8147 166° South 357 411 30,000  Level Salt Lake Center
Sun 03:35:00 PM 45.3011 -113.7806 166° South 361 415 30,000  Level Salt Lake Center
Sun 03:36:02 PM 45.1936 -113.7408 165° South 359 413 30,000  Level Salt Lake Center
Sun 03:37:04 PM 45.1008 -113.7069 166° South 360 414 30,000  Level Salt Lake Center
Sun 03:38:06 PM 44.9931 -113.6683 166° South 359 413 30,000  Level Salt Lake Center
Sun 03:39:08 PM 44.9006 -113.6350 166° South 358 412 30,000  Level Salt Lake Center
Sun 03:40:10 PM 44.7933 -113.5958 165° South 358 412 30,000  Level Salt Lake Center
Sun 03:41:12 PM 44.7014 -113.5619 165° South 357 411 30,000  Level Salt Lake Center
Sun 03:42:14 PM 44.5942 -113.5253 166° South 356 410 30,000  Level Salt Lake Center
Sun 03:43:16 PM 44.5006 -113.4906 165° South 359 413 30,000  Level Salt Lake Center
Sun 03:44:18 PM 44.3931 -113.4531 166° South 358 412 30,000  Level Salt Lake Center
Sun 03:45:20 PM 44.3008 -113.4197 165° South 357 411 30,000  Level Salt Lake Center
Sun 03:46:22 PM 44.1967 -113.3831 166° South 352 405 30,000  Level Salt Lake Center
Sun 03:47:24 PM 44.1053 -113.3503 166° South 352 405 30,000  Level Salt Lake Center
Sun 03:48:26 PM 44.0139 -113.3197 166° South 352 405 30,000  Level Salt Lake Center
Sun 03:49:28 PM 43.9092 -113.2831 166° South 349 402 30,000  Level Salt Lake Center
Sun 03:50:30 PM 43.8178 -113.2508 166° South 352 405 30,000  Level Salt Lake Center
Sun 03:51:32 PM 43.7128 -113.2142 166° South 350 403 30,000  Level Salt Lake Center
Sun 03:52:34 PM 43.6217 -113.1825 166° South 351 404 30,000  Level Salt Lake Center
Sun 03:53:36 PM 43.5164 -113.1458 166° South 351 404 30,000  Level Salt Lake Center
Sun 03:54:38 PM 43.4264 -113.1150 166° South 349 402 30,000  Level Salt Lake Center
Sun 03:55:40 PM 43.3219 -113.0789 166° South 347 399 30,000  Level Salt Lake Center
Sun 03:56:42 PM 43.2317 -113.0483 166° South 347 399 30,000  Level Salt Lake Center
Sun 03:57:44 PM 43.1264 -113.0142 167° South 347 399 30,000  Level Salt Lake Center
Sun 03:58:46 PM 43.0364 -112.9822 165° South 348 400 30,000  Level Salt Lake Center
Sun 03:59:47 PM 42.9314 -112.9453 166° South 348 400 30,000  Level Salt Lake Center
Sun 04:00:49 PM 42.8408 -112.9153 166° South 350 403 30,000  Level Salt Lake Center
Sun 04:01:51 PM 42.7497 -112.8861 167° South 350 403 30,000  Level Salt Lake Center
Sun 04:02:53 PM 42.6419 -112.8481 165° South 351 404 30,000  Level Salt Lake Center
Sun 04:03:55 PM 42.5475 -112.8178 167° South 349 402 30,000  Level Salt Lake Center
Sun 04:04:57 PM 42.4514 -112.7900 168° South 354 407 30,000  Level Salt Lake Center
Sun 04:05:59 PM 42.3564 -112.7581 166° South 354 407 30,000  Level Salt Lake Center
Sun 04:07:01 PM 42.2617 -112.7281 167° South 351 404 30,000  Level Salt Lake Center
Sun 04:08:02 PM 42.1486 -112.6903 166° South 350 403 30,000 -634 Level Salt Lake Center
Sun 04:09:04 PM 42.0539 -112.6586 166° South 351 404 28,700 -1,984 Descending Salt Lake Center
Sun 04:10:06 PM 41.9592 -112.6269 166° South 353 406 25,900 -2,661 Descending Salt Lake Center
Sun 04:11:08 PM 41.8614 -112.5964 167° South 359 413 23,200 -2,613 Descending Salt Lake Center
Sun 04:12:10 PM 41.7664 -112.5664 167° South 355 409 20,500 -2,613 Descending Salt Lake Center
Sun 04:13:12 PM 41.6717 -112.5358 166° South 352 405 17,800 -2,262 Descending Salt Lake Center
Sun 04:14:12 PM 41.5689 -112.4964 164° South 347 399 15,900 -1,096 Descending Salt Lake Center
Sun 04:15:07 PM 41.4981 -112.4514 155° Southeast 314 361 15,700 -480 Descending Salt Lake Center
Sun 04:16:17 PM 41.4200 -112.3536 137° Southeast 345 397 14,900 -682 Descending Salt Lake Center
Sun 04:17:19 PM 41.3533 -112.2561 132° Southeast 355 409 14,200 -1,393 Descending Salt Lake Center
Sun 04:18:09 PM 41.2981 -112.1706 131° Southeast 348 400 12,300 -1,730 Descending Salt Lake Center
Sun 04:19:10 PM 41.2328 -112.0786 133° Southeast 344 396 11,000 -828 Descending Salt Lake Center
Sun 04:20:05 PM 41.1733 -112.0164 142° Southeast 294 338 10,700 -639 Descending Salt Lake Center
Sun 04:21:12 PM 41.0853 -112.0064 175° South 278 320 9,700 -898 Descending Salt Lake Center
Sun 04:22:12 PM 41.0131 -112.0000 176° South 254 292 8,800 -992 Descending Salt Lake Center
Sun 04:23:13 PM 40.9544 -111.9972 178° South 211 243 7,700 -1,138 Descending Salt Lake Center
Sun 04:24:08 PM 40.9053 -111.9883 172° South 195 224 6,600 -1,200 Descending Salt Lake Center
Sun 04:25:08 PM 40.8592 -111.9842 176° South 165 190 5,400 -1,041 Descending Salt Lake Center
Sun 04:26:09 PM 40.8239 -111.9792 174° South 132 152 4,500 -885 Descending Salt Lake Center

Login

Don't have an account? Register now (free) for customized features, flight alerts, and more!